Time;durP1;ratioP1;P1;durP2;ratioP2;P2;SDS_P1;SDS_P2;PMS_P1;PMS_P2;Temp;Humidity;BMP_temperature;BMP_pressure;BME280_temperature;BME280_humidity;BME280_pressure;Samples;Min_cycle;Max_cycle;Signal;HPM_P1;HPM_P2
2022/07/03 00:01:09;;;;;;;2.20;2.00;;;21.90;68.30;;;;;;5031752;28;20075;-73
2022/07/03 00:03:35;;;;;;;2.83;2.13;;;21.90;68.40;;;;;;5033027;28;20053;-71
2022/07/03 00:06:00;;;;;;;2.42;2.22;;;21.90;68.40;;;;;;5035069;28;20040;-71
2022/07/03 00:08:26;;;;;;;2.67;2.10;;;21.90;68.60;;;;;;5036401;28;20034;-72
2022/07/03 00:10:52;;;;;;;4.72;2.75;;;21.80;69.60;;;;;;5036379;28;20029;-71
2022/07/03 00:13:17;;;;;;;5.50;2.65;;;21.80;70.10;;;;;;5036150;28;20026;-71
2022/07/03 00:15:43;;;;;;;2.70;2.22;;;21.80;70.50;;;;;;5036266;28;20028;-71
2022/07/03 00:18:09;;;;;;;3.58;2.42;;;21.80;71.20;;;;;;5035809;28;20108;-71
2022/07/03 00:20:40;;;;;;;3.63;2.20;;;21.80;71.50;;;;;;5036060;28;20033;-71
2022/07/03 00:23:09;;;;;;;;;;;21.80;71.10;;;;;;5035931;28;20462;-72
2022/07/03 00:25:36;;;;;;;3.05;2.13;;;21.70;71.70;;;;;;5035933;28;19913;-71
2022/07/03 00:28:02;;;;;;;3.47;2.13;;;21.70;72.10;;;;;;5035281;28;20053;-71
2022/07/03 00:30:29;;;;;;;5.07;2.45;;;21.60;72.30;;;;;;5035678;28;20060;-71
2022/07/03 00:32:54;;;;;;;2.75;2.00;;;21.60;72.50;;;;;;5035955;28;20057;-71
2022/07/03 00:35:20;;;;;;;3.17;2.05;;;21.60;72.90;;;;;;5035409;28;20060;-71
2022/07/03 00:37:46;;;;;;;3.47;2.28;;;21.50;73.40;;;;;;5035965;28;20037;-72
2022/07/03 00:40:12;;;;;;;3.53;2.70;;;21.50;73.20;;;;;;5035427;28;20377;-71
2022/07/03 00:42:41;;;;;;;3.17;2.47;;;21.50;73.60;;;;;;5035508;28;20025;-71
2022/07/03 00:45:08;;;;;;;4.25;3.10;;;21.40;73.90;;;;;;5035201;28;20037;-71
2022/07/03 00:47:36;;;;;;;3.78;2.70;;;21.30;74.40;;;;;;5035936;28;20105;-71
2022/07/03 00:50:08;;;;;;;4.82;2.72;;;21.30;75.10;;;;;;5035276;28;20028;-71
2022/07/03 00:52:35;;;;;;;4.10;2.38;;;21.30;74.80;;;;;;5035756;28;20025;-71
2022/07/03 00:55:06;;;;;;;3.60;2.75;;;21.30;75.00;;;;;;5035190;28;20037;-71
2022/07/03 00:57:31;;;;;;;4.72;2.60;;;21.30;74.90;;;;;;5035371;28;20025;-71
2022/07/03 00:59:58;;;;;;;4.22;2.70;;;21.30;75.20;;;;;;5035497;28;20036;-71
2022/07/03 01:02:32;;;;;;;3.38;2.50;;;21.30;75.60;;;;;;5034951;28;20025;-71
2022/07/03 01:05:10;;;;;;;5.47;2.67;;;21.20;75.80;;;;;;5035342;28;20428;-71
2022/07/03 01:08:01;;;;;;;3.45;2.38;;;21.20;75.50;;;;;;5035082;28;20026;-71
2022/07/03 01:10:30;;;;;;;4.72;2.80;;;21.10;76.60;;;;;;5035557;28;20025;-72
2022/07/03 01:13:17;;;;;;;3.63;2.15;;;21.10;75.90;;;;;;5035180;28;20529;-71
2022/07/03 01:16:18;;;;;;;3.83;2.15;;;21.10;76.20;;;;;;5034106;28;20036;-71
2022/07/03 01:19:08;;;;;;;4.53;3.03;;;21.10;75.80;;;;;;4935571;29;20043;-71
2022/07/03 01:21:54;;;;;;;3.70;2.45;;;21.10;76.30;;;;;;5030857;28;20491;-71
2022/07/03 01:24:53;;;;;;;4.28;2.17;;;21.00;76.40;;;;;;5034561;28;20057;-72
2022/07/03 01:27:32;;;;;;;3.35;2.75;;;21.00;77.00;;;;;;5034522;28;20092;-71
2022/07/03 01:30:00;;;;;;;3.53;2.63;;;21.00;77.40;;;;;;5034672;28;20127;-71
2022/07/03 01:32:33;;;;;;;4.13;2.25;;;21.00;76.80;;;;;;5034694;28;20100;-71
2022/07/03 01:35:01;;;;;;;3.55;2.53;;;21.00;77.80;;;;;;5034546;28;20485;-71
2022/07/03 01:37:29;;;;;;;3.17;2.25;;;21.00;77.90;;;;;;5034391;28;20382;-72
2022/07/03 01:39:57;;;;;;;4.63;2.10;;;21.00;78.10;;;;;;5034421;28;20036;-72
2022/07/03 01:42:24;;;;;;;3.90;2.58;;;21.00;77.80;;;;;;5034447;28;20218;-72
2022/07/03 01:44:52;;;;;;;5.65;2.90;;;21.00;77.90;;;;;;5034046;28;20045;-71
2022/07/03 01:47:18;;;;;;;3.60;2.40;;;21.00;77.50;;;;;;5033848;28;20394;-72
2022/07/03 01:49:44;;;;;;;2.90;2.20;;;21.00;77.10;;;;;;5034316;28;20033;-72
2022/07/03 01:52:15;;;;;;;3.55;2.22;;;21.10;76.60;;;;;;5034099;28;20105;-72
2022/07/03 01:54:43;;;;;;;3.38;2.67;;;21.00;76.50;;;;;;5034583;28;20032;-72
2022/07/03 01:57:09;;;;;;;4.03;2.75;;;21.00;76.70;;;;;;5034257;28;20044;-71
2022/07/03 01:59:35;;;;;;;3.40;2.53;;;21.00;76.80;;;;;;5016075;28;20029;-71
2022/07/03 02:02:13;;;;;;;2.20;1.98;;;21.00;76.90;;;;;;5034339;28;20347;-72
2022/07/03 02:04:47;;;;;;;2.40;1.92;;;21.00;77.10;;;;;;5033924;28;20033;-72
2022/07/03 02:07:27;;;;;;;2.28;2.03;;;21.00;76.30;;;;;;5033832;28;20101;-72
2022/07/03 02:10:06;;;;;;;2.38;1.63;;;21.00;76.70;;;;;;5033989;28;20407;-72
2022/07/03 02:12:54;;;;;;;2.63;2.20;;;21.00;76.00;;;;;;5034093;28;20476;-72
2022/07/03 02:15:50;;;;;;;2.78;2.17;;;20.90;76.20;;;;;;5034203;28;20103;-72
2022/07/03 02:18:28;;;;;;;2.95;1.90;;;20.90;76.70;;;;;;5031454;28;20076;-72
2022/07/03 02:21:06;;;;;;;3.53;2.30;;;20.90;76.20;;;;;;5033881;28;20032;-71
2022/07/03 02:23:42;;;;;;;3.80;2.05;;;20.90;76.80;;;;;;5034190;28;20105;-72
2022/07/03 02:26:14;;;;;;;3.72;2.17;;;20.90;76.50;;;;;;5032883;28;20033;-72
2022/07/03 02:29:02;;;;;;;2.15;1.95;;;20.90;76.90;;;;;;5033969;28;20087;-72
2022/07/03 02:31:40;;;;;;;3.22;2.10;;;20.90;77.30;;;;;;5033297;28;20057;-71
2022/07/03 02:34:07;;;;;;;2.47;2.28;;;20.80;77.30;;;;;;5033755;28;20030;-71
2022/07/03 02:36:35;;;;;;;2.55;2.35;;;20.80;76.90;;;;;;5033858;28;20470;-71
2022/07/03 02:39:01;;;;;;;2.20;2.00;;;20.70;76.60;;;;;;5033543;28;20028;-72
2022/07/03 02:41:43;;;;;;;3.17;2.47;;;20.70;77.00;;;;;;5032747;28;20642;-72
2022/07/03 02:44:28;;;;;;;4.13;2.30;;;20.60;77.30;;;;;;5033023;28;20024;-72
2022/07/03 02:47:16;;;;;;;4.82;2.50;;;20.60;77.90;;;;;;5033262;28;20032;-72
2022/07/03 02:49:52;;;;;;;2.33;1.83;;;20.50;78.00;;;;;;5033406;28;20071;-72
2022/07/03 02:52:42;;;;;;;3.22;2.47;;;20.50;78.40;;;;;;5032967;28;20029;-72
2022/07/03 02:55:20;;;;;;;2.88;2.40;;;20.40;78.80;;;;;;5033332;28;20390;-72
2022/07/03 02:57:57;;;;;;;3.05;2.38;;;20.40;79.10;;;;;;5033077;28;20022;-72
2022/07/03 03:00:24;;;;;;;2.60;2.00;;;20.40;79.30;;;;;;5032935;28;20030;-72
2022/07/03 03:02:50;;;;;;;2.97;2.38;;;20.40;79.50;;;;;;5033145;28;20030;-72
2022/07/03 03:05:19;;;;;;;3.08;2.45;;;20.30;79.60;;;;;;5032637;28;20465;-72
2022/07/03 03:08:01;;;;;;;5.30;2.72;;;20.30;79.40;;;;;;5033384;28;20030;-72
2022/07/03 03:10:27;;;;;;;3.47;3.15;;;20.20;79.80;;;;;;5032546;28;20074;-72
2022/07/03 03:13:03;;;;;;;4.75;2.65;;;20.20;80.20;;;;;;5032997;28;20057;-72
2022/07/03 03:15:30;;;;;;;3.45;2.95;;;20.20;80.40;;;;;;5032676;28;20036;-72
2022/07/03 03:18:01;;;;;;;2.47;2.10;;;20.20;80.30;;;;;;5033000;28;20167;-72
2022/07/03 03:20:29;;;;;;;;;;;20.20;81.10;;;;;;5032796;28;20021;-72
2022/07/03 03:23:30;;;;;;;2.70;2.50;;;20.20;81.00;;;;;;5033075;28;20269;-72
2022/07/03 03:25:55;;;;;;;4.55;3.03;;;20.30;80.70;;;;;;5032761;28;20030;-71
2022/07/03 03:28:21;;;;;;;2.85;2.53;;;20.30;80.50;;;;;;5032254;28;20049;-71
2022/07/03 03:30:48;;;;;;;3.55;2.88;;;20.30;80.40;;;;;;5032977;28;20476;-71
2022/07/03 03:33:14;;;;;;;3.20;2.88;;;20.30;80.30;;;;;;5032168;28;20053;-72
2022/07/03 03:35:40;;;;;;;4.13;2.63;;;20.30;80.50;;;;;;5032815;28;20096;-72
2022/07/03 03:38:06;;;;;;;5.70;2.70;;;20.30;81.10;;;;;;5032791;28;20087;-71
2022/07/03 03:40:33;;;;;;;3.15;2.50;;;20.30;80.70;;;;;;5035790;28;20163;-71
2022/07/03 03:42:59;;;;;;;5.07;2.58;;;20.30;81.20;;;;;;5037010;28;20116;-72
2022/07/03 03:45:25;;;;;;;4.68;2.72;;;20.30;81.50;;;;;;5036493;28;20037;-72
2022/07/03 03:47:50;;;;;;;4.22;2.88;;;20.30;81.80;;;;;;5036581;28;20026;-71
2022/07/03 03:50:16;;;;;;;3.28;2.60;;;20.30;81.90;;;;;;5036090;28;20040;-72
2022/07/03 03:52:42;;;;;;;2.83;2.42;;;20.30;82.20;;;;;;5036868;28;20115;-71
2022/07/03 03:55:11;;;;;;;5.18;2.60;;;20.30;82.00;;;;;;5036721;28;20543;-72
2022/07/03 03:57:37;;;;;;;2.80;2.47;;;20.40;81.50;;;;;;5036218;28;20098;-72
2022/07/03 04:00:04;;;;;;;2.95;2.40;;;20.40;81.30;;;;;;5036658;28;20032;-71
2022/07/03 04:02:30;;;;;;;2.88;2.20;;;20.50;80.90;;;;;;5036103;28;20083;-71
2022/07/03 04:04:56;;;;;;;2.88;2.33;;;20.50;80.60;;;;;;5036452;28;20045;-72
2022/07/03 04:07:22;;;;;;;2.78;2.45;;;20.50;80.20;;;;;;5036091;28;20022;-71
2022/07/03 04:09:47;;;;;;;2.38;2.17;;;20.60;80.10;;;;;;5036177;28;20030;-71
2022/07/03 04:12:14;;;;;;;2.30;2.10;;;20.60;79.50;;;;;;5036346;28;20026;-72
2022/07/03 04:14:40;;;;;;;3.13;2.45;;;20.70;79.70;;;;;;5036266;28;20079;-72
2022/07/03 04:17:05;;;;;;;3.75;2.30;;;20.70;78.60;;;;;;5036284;28;20029;-72
2022/07/03 04:19:31;;;;;;;2.45;2.15;;;20.80;78.70;;;;;;5035820;28;20033;-73
2022/07/03 04:21:57;;;;;;;4.32;2.72;;;20.80;78.80;;;;;;5036010;28;20393;-72
2022/07/03 04:24:23;;;;;;;2.60;2.17;;;20.90;78.50;;;;;;5035955;28;20477;-72
2022/07/03 04:26:48;;;;;;;3.53;2.13;;;21.00;77.60;;;;;;5035928;28;20431;-71
2022/07/03 04:29:14;;;;;;;2.75;2.22;;;21.10;77.50;;;;;;5035995;28;20033;-72
2022/07/03 04:31:40;;;;;;;2.40;2.20;;;21.10;77.10;;;;;;5035655;28;20017;-72
2022/07/03 04:34:05;;;;;;;2.92;2.22;;;21.20;76.50;;;;;;5018251;28;20029;-73
2022/07/03 04:36:31;;;;;;;3.40;2.28;;;21.30;76.80;;;;;;5035596;28;20052;-73
2022/07/03 04:38:56;;;;;;;2.92;2.20;;;21.50;76.10;;;;;;5036032;28;20022;-73
2022/07/03 04:41:22;;;;;;;3.53;2.25;;;21.60;75.10;;;;;;5035568;28;20022;-73
2022/07/03 04:43:48;;;;;;;3.22;2.47;;;21.70;74.40;;;;;;5035833;28;20021;-73
2022/07/03 04:46:14;;;;;;;3.60;2.10;;;21.80;74.00;;;;;;5035863;28;20037;-73
2022/07/03 04:48:39;;;;;;;2.88;2.28;;;21.80;73.50;;;;;;5035296;28;20036;-73
2022/07/03 04:51:05;;;;;;;2.42;2.22;;;21.90;73.10;;;;;;5035335;28;20424;-73
2022/07/03 04:53:30;;;;;;;4.30;1.90;;;22.00;73.10;;;;;;5035177;28;20022;-71
2022/07/03 04:55:56;;;;;;;2.08;1.90;;;22.10;72.90;;;;;;5035530;28;20029;-71
2022/07/03 04:58:22;;;;;;;3.00;2.22;;;22.20;71.90;;;;;;5035018;28;20088;-72
2022/07/03 05:00:47;;;;;;;3.05;1.92;;;22.40;71.50;;;;;;5035587;28;20025;-72
2022/07/03 05:03:13;;;;;;;2.50;2.30;;;22.50;71.10;;;;;;5035342;28;20458;-72
2022/07/03 05:05:39;;;;;;;3.15;2.22;;;22.70;70.80;;;;;;5034899;28;20048;-72
2022/07/03 05:08:05;;;;;;;2.85;2.05;;;22.80;69.50;;;;;;5035301;28;20462;-72
2022/07/03 05:10:31;;;;;;;2.83;2.10;;;22.90;68.90;;;;;;5034606;28;20072;-72
2022/07/03 05:12:56;;;;;;;2.28;2.00;;;23.00;67.40;;;;;;5035191;28;20029;-71
2022/07/03 05:15:23;;;;;;;2.72;2.05;;;23.10;66.90;;;;;;5034791;28;20030;-72
2022/07/03 05:17:49;;;;;;;2.28;2.05;;;23.30;66.30;;;;;;5035311;28;20079;-71
2022/07/03 05:20:29;;;;;;;2.83;2.30;;;23.40;65.80;;;;;;5035114;28;20060;-71
2022/07/03 05:23:00;;;;;;;3.47;2.13;;;23.60;65.30;;;;;;5035386;28;20120;-72
2022/07/03 05:25:26;;;;;;;2.42;2.22;;;23.90;64.80;;;;;;5034244;28;20473;-72
2022/07/03 05:27:55;;;;;;;5.00;2.10;;;24.00;63.60;;;;;;5034767;28;20486;-72
2022/07/03 05:30:22;;;;;;;2.13;1.77;;;24.30;62.60;;;;;;5034522;28;20025;-72
2022/07/03 05:32:48;;;;;;;3.40;1.83;;;24.50;61.70;;;;;;5034975;28;20040;-72
2022/07/03 05:35:14;;;;;;;2.45;1.90;;;24.70;61.70;;;;;;5034844;28;20033;-72
2022/07/03 05:37:40;;;;;;;2.65;2.25;;;25.00;61.10;;;;;;5033827;28;20029;-73
2022/07/03 05:40:07;;;;;;;4.95;2.70;;;25.20;60.50;;;;;;5034504;28;20034;-72
2022/07/03 05:42:33;;;;;;;2.10;1.90;;;25.40;59.40;;;;;;5033965;28;20029;-71
2022/07/03 05:44:58;;;;;;;2.72;1.77;;;25.60;58.30;;;;;;5016455;28;20033;-72
2022/07/03 05:47:24;;;;;;;2.40;2.20;;;25.80;57.70;;;;;;5034176;28;20044;-71
2022/07/03 05:49:50;;;;;;;3.75;2.30;;;26.10;56.90;;;;;;5034539;28;20159;-71
2022/07/03 05:52:16;;;;;;;2.55;2.10;;;26.20;56.60;;;;;;5034248;28;20456;-72
2022/07/03 05:54:42;;;;;;;2.75;2.13;;;26.50;56.20;;;;;;5033937;28;20245;-71
2022/07/03 05:57:08;;;;;;;2.33;2.10;;;26.80;55.60;;;;;;5034091;28;20052;-71
2022/07/03 05:59:33;;;;;;;1.98;1.77;;;27.10;54.50;;;;;;5033745;28;20022;-71
2022/07/03 06:01:59;;;;;;;2.25;1.80;;;27.40;54.70;;;;;;5033839;28;20026;-71
2022/07/03 06:04:25;;;;;;;2.53;1.85;;;27.70;52.90;;;;;;5033333;28;20060;-71
2022/07/03 06:06:50;;;;;;;2.22;1.85;;;28.10;52.30;;;;;;5034184;28;20031;-71
2022/07/03 06:09:16;;;;;;;3.13;2.17;;;28.30;52.50;;;;;;5034449;28;20032;-71
2022/07/03 06:11:42;;;;;;;2.65;1.58;;;28.70;50.40;;;;;;5033486;28;20459;-71
2022/07/03 06:14:08;;;;;;;3.67;2.05;;;29.20;49.80;;;;;;5034066;28;20032;-72
2022/07/03 06:16:33;;;;;;;2.50;1.85;;;29.60;48.90;;;;;;5033287;28;20021;-71
2022/07/03 06:18:59;;;;;;;2.53;1.75;;;30.20;48.40;;;;;;5033664;28;20029;-73
2022/07/03 06:21:25;;;;;;;2.35;1.90;;;30.80;47.40;;;;;;5033562;28;20033;-72
2022/07/03 06:23:50;;;;;;;2.28;2.03;;;31.40;46.30;;;;;;5033586;28;20052;-72
2022/07/03 06:26:17;;;;;;;2.22;1.92;;;32.10;45.60;;;;;;5033598;28;20118;-72
2022/07/03 06:28:43;;;;;;;3.53;1.67;;;32.60;44.40;;;;;;5033002;28;20053;-72
2022/07/03 06:31:09;;;;;;;2.22;1.90;;;33.20;43.40;;;;;;5033718;28;20037;-72
2022/07/03 06:33:35;;;;;;;1.77;1.67;;;33.30;42.70;;;;;;5033321;28;20040;-72
2022/07/03 06:36:00;;;;;;;2.13;1.92;;;33.40;42.00;;;;;;5033444;28;20030;-73
2022/07/03 06:38:26;;;;;;;1.98;1.70;;;33.50;41.30;;;;;;5033294;28;20029;-74
2022/07/03 06:40:52;;;;;;;2.83;2.55;;;33.70;41.50;;;;;;5033535;28;20084;-72
2022/07/03 06:43:17;;;;;;;2.33;1.92;;;34.10;41.20;;;;;;5015911;28;20029;-74
2022/07/03 06:45:43;;;;;;;3.10;2.10;;;34.40;40.40;;;;;;5032698;28;20041;-72
2022/07/03 06:48:09;;;;;;;2.10;1.90;;;34.60;39.70;;;;;;5033359;28;20033;-71
2022/07/03 06:50:34;;;;;;;1.98;1.70;;;34.90;39.60;;;;;;5033027;28;20029;-71
2022/07/03 06:53:00;;;;;;;3.17;1.55;;;35.20;38.70;;;;;;5033315;28;20041;-71
2022/07/03 06:55:26;;;;;;;1.50;1.40;;;35.40;38.40;;;;;;5033042;28;20026;-73
2022/07/03 06:57:52;;;;;;;1.98;1.60;;;35.50;38.10;;;;;;5033163;28;20021;-72
2022/07/03 07:00:18;;;;;;;2.00;1.80;;;35.60;38.10;;;;;;5033070;28;20025;-72
2022/07/03 07:02:43;;;;;;;2.10;1.60;;;35.40;37.40;;;;;;5032397;28;20025;-72
2022/07/03 07:05:09;;;;;;;1.80;1.67;;;35.10;37.30;;;;;;5032658;28;20033;-72
2022/07/03 07:07:35;;;;;;;2.83;1.95;;;34.60;37.20;;;;;;5032884;28;20075;-72
2022/07/03 07:10:01;;;;;;;1.60;1.50;;;34.50;37.70;;;;;;5033353;28;20041;-72
2022/07/03 07:12:26;;;;;;;1.83;1.50;;;34.50;37.90;;;;;;5033061;28;20026;-72
2022/07/03 07:14:52;;;;;;;1.40;1.30;;;34.60;37.90;;;;;;5032642;28;20056;-72
2022/07/03 07:17:17;;;;;;;2.08;1.45;;;34.60;38.10;;;;;;5032916;28;20026;-71
2022/07/03 07:19:43;;;;;;;1.55;1.45;;;34.80;38.10;;;;;;5032437;28;20044;-72
2022/07/03 07:22:09;;;;;;;1.95;1.77;;;35.10;37.90;;;;;;5032535;28;20026;-72
2022/07/03 07:24:34;;;;;;;2.55;1.52;;;35.60;37.80;;;;;;5032005;28;20033;-72
2022/07/03 07:27:00;;;;;;;1.80;1.60;;;36.00;37.40;;;;;;5032541;28;20501;-72
2022/07/03 07:29:26;;;;;;;1.70;1.60;;;36.50;36.70;;;;;;5032505;28;20034;-72
2022/07/03 07:31:52;;;;;;;1.42;1.33;;;36.70;36.20;;;;;;5032049;28;20374;-72
2022/07/03 07:34:17;;;;;;;1.90;1.50;;;37.00;36.30;;;;;;5032351;28;20030;-72
2022/07/03 07:36:43;;;;;;;2.17;1.30;;;37.30;35.70;;;;;;5031712;28;20108;-72
2022/07/03 07:39:09;;;;;;;1.52;1.42;;;37.40;35.40;;;;;;5032903;28;20026;-72
2022/07/03 07:41:36;;;;;;;1.73;1.60;;;37.50;35.20;;;;;;5032059;28;20033;-71
2022/07/03 07:44:01;;;;;;;2.50;1.60;;;37.60;35.60;;;;;;5031723;28;20032;-72
2022/07/03 07:46:29;;;;;;;1.95;1.33;;;37.60;34.90;;;;;;5032020;28;20037;-71
2022/07/03 07:48:54;;;;;;;1.55;1.45;;;37.60;35.70;;;;;;5032033;28;20037;-71
2022/07/03 07:51:20;;;;;;;2.67;1.40;;;37.50;35.60;;;;;;5032493;28;20037;-71
2022/07/03 07:53:46;;;;;;;2.28;1.70;;;37.40;35.80;;;;;;5032125;28;20052;-71
2022/07/03 07:56:11;;;;;;;2.15;1.65;;;37.30;34.70;;;;;;5032469;28;20109;-70
2022/07/03 07:58:37;;;;;;;2.45;1.83;;;37.00;35.90;;;;;;5032003;28;20030;-72
2022/07/03 08:06:35;;;;;;;1.75;1.65;;;36.30;36.30;;;;;;5003230;28;20418;-71
2022/07/03 08:09:01;;;;;;;1.58;1.27;;;36.10;35.90;;;;;;5032423;28;20028;-71
2022/07/03 08:11:26;;;;;;;1.95;1.75;;;35.90;36.80;;;;;;5032381;28;20029;-71
2022/07/03 08:13:52;;;;;;;1.85;1.60;;;35.60;35.70;;;;;;5031874;28;20390;-72
2022/07/03 08:16:17;;;;;;;2.03;1.80;;;35.30;36.60;;;;;;5032187;28;20025;-71
2022/07/03 08:18:43;;;;;;;2.40;1.65;;;35.10;37.30;;;;;;5031592;28;20113;-72
2022/07/03 08:21:09;;;;;;;2.10;1.85;;;34.90;37.80;;;;;;5032322;28;20028;-71
2022/07/03 08:23:34;;;;;;;1.85;1.75;;;34.70;37.10;;;;;;5014194;28;20080;-71
2022/07/03 08:26:00;;;;;;;1.95;1.73;;;34.40;37.20;;;;;;5034755;28;20037;-71
2022/07/03 08:28:27;;;;;;;1.90;1.70;;;34.10;38.40;;;;;;5036015;28;20045;-71
2022/07/03 08:30:53;;;;;;;2.65;1.88;;;34.00;39.00;;;;;;5035444;28;20681;-71
2022/07/03 08:33:18;;;;;;;4.00;1.90;;;33.80;38.90;;;;;;5035732;28;20534;-71
2022/07/03 08:35:44;;;;;;;2.03;1.83;;;33.60;38.60;;;;;;5035324;28;20362;-72
2022/07/03 08:38:10;;;;;;;3.25;1.85;;;33.40;39.90;;;;;;5035960;28;20036;-71
2022/07/03 08:40:36;;;;;;;2.15;1.63;;;33.30;40.30;;;;;;5035292;28;20029;-69
2022/07/03 08:43:03;;;;;;;2.75;1.58;;;33.20;40.20;;;;;;5036035;28;20029;-70
2022/07/03 08:45:29;;;;;;;1.75;1.65;;;33.00;39.80;;;;;;5035380;28;20034;-71
2022/07/03 08:47:58;;;;;;;2.30;2.10;;;32.60;39.90;;;;;;5035009;28;20037;-71
2022/07/03 08:50:24;;;;;;;2.38;1.90;;;32.30;40.60;;;;;;5035188;28;20052;-71
2022/07/03 08:52:49;;;;;;;2.05;1.85;;;32.00;41.40;;;;;;5035156;28;20029;-71
2022/07/03 08:55:16;;;;;;;3.53;1.73;;;31.90;41.70;;;;;;5035399;28;20037;-72
2022/07/03 08:57:44;;;;;;;2.42;1.90;;;31.80;42.10;;;;;;5035012;28;20072;-72
2022/07/03 09:00:12;;;;;;;1.63;1.42;;;31.70;43.00;;;;;;5035369;28;20100;-72
2022/07/03 09:02:41;;;;;;;2.00;1.80;;;31.60;43.40;;;;;;5034780;28;20064;-72
2022/07/03 09:05:08;;;;;;;2.65;1.83;;;31.50;43.40;;;;;;5035064;28;20117;-72
2022/07/03 09:07:38;;;;;;;1.83;1.73;;;31.40;44.10;;;;;;5035149;28;20026;-72
2022/07/03 09:10:05;;;;;;;;;;;31.30;43.90;;;;;;5035630;28;20030;-72
2022/07/03 09:12:31;;;;;;;1.92;1.45;;;31.30;44.10;;;;;;5035247;28;20284;-71
2022/07/03 09:14:58;;;;;;;1.60;1.50;;;31.10;42.90;;;;;;5034698;28;20034;-71
2022/07/03 09:17:24;;;;;;;3.72;2.00;;;30.90;44.00;;;;;;5034787;28;20378;-72
2022/07/03 09:19:50;;;;;;;2.35;1.92;;;30.90;43.50;;;;;;5034585;28;20048;-71
2022/07/03 09:22:19;;;;;;;1.73;1.60;;;30.70;44.20;;;;;;5035160;28;20033;-71
2022/07/03 09:24:44;;;;;;;1.60;1.50;;;30.60;45.00;;;;;;5034803;28;20056;-72
2022/07/03 09:27:15;;;;;;;2.20;1.50;;;30.40;44.50;;;;;;5034631;28;20545;-72
2022/07/03 09:30:00;;;;;;;4.13;1.30;;;30.30;44.50;;;;;;5034239;28;20497;-71
2022/07/03 09:32:51;;;;;;;3.65;1.60;;;30.10;44.90;;;;;;5034855;28;20026;-72
2022/07/03 09:35:19;;;;;;;1.30;1.13;;;30.00;44.50;;;;;;5033768;28;20467;-72
2022/07/03 09:37:58;;;;;;;3.38;1.30;;;29.90;45.30;;;;;;5033185;28;20034;-72
2022/07/03 09:40:25;;;;;;;1.35;1.25;;;29.70;45.30;;;;;;5033682;28;20033;-72
2022/07/03 09:43:01;;;;;;;1.45;1.27;;;29.60;45.90;;;;;;5034306;28;20356;-72
2022/07/03 09:45:27;;;;;;;1.75;1.50;;;29.30;46.20;;;;;;5034431;28;20041;-72
2022/07/03 09:47:53;;;;;;;1.52;1.33;;;29.20;46.90;;;;;;5034202;28;20025;-72
2022/07/03 09:50:19;;;;;;;1.50;1.40;;;29.10;47.30;;;;;;5034442;28;20048;-71
2022/07/03 09:52:47;;;;;;;1.90;1.45;;;29.00;48.10;;;;;;5034111;28;20029;-72
2022/07/03 09:55:12;;;;;;;1.58;1.40;;;28.90;47.90;;;;;;5034081;28;20029;-72
2022/07/03 09:57:50;;;;;;;1.98;1.52;;;28.80;48.20;;;;;;5034364;28;20551;-71
2022/07/03 10:00:22;;;;;;;1.80;1.60;;;28.80;47.70;;;;;;5034038;28;20025;-72
2022/07/03 10:03:01;;;;;;;1.48;1.38;;;28.80;48.60;;;;;;5033849;28;20025;-72
2022/07/03 10:05:36;;;;;;;1.40;1.30;;;28.70;49.00;;;;;;5033722;28;20034;-71
2022/07/03 10:08:04;;;;;;;1.80;1.40;;;28.80;49.40;;;;;;5033808;28;20026;-71
2022/07/03 10:10:35;;;;;;;2.22;1.40;;;28.80;50.10;;;;;;5034200;28;20029;-71
2022/07/03 10:13:01;;;;;;;;;;;28.80;49.20;;;;;;5033987;28;20033;-71
2022/07/03 10:15:28;;;;;;;1.92;1.42;;;28.80;49.40;;;;;;5033687;28;19912;-71
2022/07/03 10:17:56;;;;;;;1.40;1.25;;;28.80;49.40;;;;;;5033588;28;20030;-72
2022/07/03 10:20:35;;;;;;;2.20;1.85;;;28.80;49.40;;;;;;5033916;28;20373;-72
2022/07/03 10:23:02;;;;;;;2.42;1.58;;;28.80;49.50;;;;;;5033505;28;20029;-72
2022/07/03 10:25:30;;;;;;;1.73;1.30;;;28.70;50.00;;;;;;5033761;28;20033;-71
2022/07/03 10:27:56;;;;;;;1.80;1.70;;;28.70;50.20;;;;;;5033269;28;20437;-72
2022/07/03 10:30:23;;;;;;;1.77;1.50;;;28.80;50.20;;;;;;5033809;28;20033;-72
2022/07/03 10:32:52;;;;;;;2.28;1.75;;;28.80;50.40;;;;;;5033297;28;20057;-72
2022/07/03 10:35:22;;;;;;;2.00;1.52;;;28.80;50.00;;;;;;5033598;28;20533;-71
2022/07/03 10:38:02;;;;;;;1.83;1.58;;;28.90;50.20;;;;;;5033201;28;20022;-71
2022/07/03 10:46:31;;;;;;;1.55;1.27;;;28.90;49.90;;;;;;5033245;28;20048;-71
2022/07/03 10:49:03;;;;;;;1.60;1.50;;;29.00;50.80;;;;;;5032477;28;20097;-71
2022/07/03 10:51:31;;;;;;;1.88;1.67;;;28.90;50.60;;;;;;5033205;28;20018;-72
2022/07/03 10:54:17;;;;;;;1.48;1.30;;;28.90;51.00;;;;;;5032870;28;20029;-72
2022/07/03 10:56:57;;;;;;;1.65;1.55;;;29.00;50.90;;;;;;5033247;28;20116;-72
2022/07/03 10:59:42;;;;;;;1.60;1.50;;;29.00;50.80;;;;;;5033478;28;20104;-71
2022/07/03 11:02:34;;;;;;;1.88;1.50;;;28.90;50.70;;;;;;5032647;28;20087;-72
2022/07/03 11:05:00;;;;;;;1.75;1.20;;;28.90;50.90;;;;;;5032468;28;20084;-71
2022/07/03 11:07:33;;;;;;;1.65;1.55;;;28.90;50.70;;;;;;5032906;28;20022;-72
2022/07/03 11:10:14;;;;;;;3.97;1.50;;;29.00;51.20;;;;;;5032375;28;20025;-71
2022/07/03 11:13:07;;;;;;;2.70;1.55;;;29.00;50.50;;;;;;5033037;28;20029;-72
2022/07/03 11:15:48;;;;;;;1.73;1.42;;;29.00;50.70;;;;;;5033051;28;20029;-71
2022/07/03 11:18:40;;;;;;;1.48;1.30;;;29.10;51.10;;;;;;5033131;28;20111;-72
2022/07/03 11:21:23;;;;;;;2.40;1.58;;;29.10;49.90;;;;;;5031942;28;20054;-72
2022/07/03 11:23:54;;;;;;;2.90;1.70;;;29.10;50.50;;;;;;5032696;28;20490;-72
2022/07/03 11:26:22;;;;;;;2.03;1.80;;;29.10;50.80;;;;;;5032925;28;20041;-71
2022/07/03 11:28:52;;;;;;;1.90;1.55;;;29.10;51.10;;;;;;5031978;28;20060;-72
2022/07/03 11:31:19;;;;;;;1.53;1.30;;;29.20;51.40;;;;;;5032600;28;20116;-72
2022/07/03 11:33:49;;;;;;;1.50;1.40;;;29.30;51.90;;;;;;5032662;28;20273;-72
2022/07/03 11:36:14;;;;;;;1.50;1.40;;;29.30;51.50;;;;;;5032872;28;20055;-72
2022/07/03 11:38:41;;;;;;;1.45;1.35;;;29.30;51.10;;;;;;5032550;28;20100;-72
2022/07/03 11:41:08;;;;;;;1.75;1.40;;;29.30;50.40;;;;;;5032479;28;20036;-72
2022/07/03 11:43:34;;;;;;;1.77;1.60;;;29.40;50.70;;;;;;5032780;28;20036;-71
2022/07/03 11:46:01;;;;;;;1.55;1.45;;;29.40;50.10;;;;;;5032232;28;20037;-72
2022/07/03 11:48:27;;;;;;;1.60;1.50;;;29.40;51.00;;;;;;5032103;28;20029;-72
2022/07/03 11:51:02;;;;;;;1.65;1.50;;;29.40;50.80;;;;;;5032275;28;20029;-72
2022/07/03 11:53:34;;;;;;;1.30;1.10;;;29.40;50.30;;;;;;5032734;28;20036;-72
2022/07/03 11:56:02;;;;;;;1.20;1.10;;;29.40;50.60;;;;;;5032208;28;20104;-72
2022/07/03 11:58:43;;;;;;;3.60;1.85;;;29.40;50.60;;;;;;5032660;28;20022;-72
2022/07/03 12:01:10;;;;;;;1.98;1.48;;;29.40;50.60;;;;;;5035196;28;20147;-72
2022/07/03 12:03:35;;;;;;;1.98;1.35;;;29.30;49.90;;;;;;5036553;28;20529;-72
2022/07/03 12:06:01;;;;;;;1.63;1.45;;;29.30;50.00;;;;;;5036092;28;20120;-71
2022/07/03 12:08:31;;;;;;;1.95;1.60;;;29.30;50.20;;;;;;5036459;28;20032;-71
2022/07/03 12:11:07;;;;;;;1.45;1.25;;;29.20;50.10;;;;;;5035904;28;20469;-72
2022/07/03 12:13:33;;;;;;;1.80;1.50;;;29.20;50.10;;;;;;5036294;28;20105;-71
2022/07/03 12:16:06;;;;;;;1.38;1.25;;;29.20;50.60;;;;;;5035840;28;20045;-72
2022/07/03 12:18:51;;;;;;;1.30;1.20;;;29.20;51.00;;;;;;5036227;28;20025;-72
2022/07/03 12:21:18;;;;;;;1.27;1.17;;;29.20;50.00;;;;;;5036238;28;20033;-72
2022/07/03 12:23:48;;;;;;;1.58;1.33;;;29.20;50.00;;;;;;5036085;28;20048;-72
2022/07/03 12:26:31;;;;;;;1.10;1.00;;;29.20;49.20;;;;;;5035710;28;20041;-72
2022/07/03 12:29:01;;;;;;;1.92;1.25;;;29.20;46.70;;;;;;5035788;28;20049;-72
2022/07/03 12:31:28;;;;;;;;;;;29.20;46.70;;;;;;5036546;28;20036;-72
2022/07/03 12:33:55;;;;;;;1.27;1.10;;;29.20;48.00;;;;;;5035489;28;19905;-72
2022/07/03 12:36:21;;;;;;;1.20;1.08;;;29.20;48.10;;;;;;5035953;28;20025;-72
2022/07/03 12:38:52;;;;;;;1.20;1.10;;;29.20;47.70;;;;;;5036245;28;20296;-72
2022/07/03 12:41:19;;;;;;;1.60;1.13;;;29.20;46.50;;;;;;5035863;28;20025;-70
2022/07/03 12:43:48;;;;;;;2.33;1.50;;;29.20;46.20;;;;;;5035889;28;20030;-71
2022/07/03 12:46:17;;;;;;;1.10;1.00;;;29.20;46.90;;;;;;5035148;28;20091;-71
2022/07/03 12:48:56;;;;;;;1.08;1.00;;;29.20;48.10;;;;;;5035359;28;20461;-71
2022/07/03 12:51:44;;;;;;;1.48;1.25;;;29.20;46.90;;;;;;5035832;28;20057;-70
2022/07/03 12:54:15;;;;;;;1.15;1.02;;;29.20;43.00;;;;;;5035187;28;20037;-72
2022/07/03 12:56:42;;;;;;;1.33;1.23;;;29.20;43.50;;;;;;5035503;28;20030;-71
2022/07/03 12:59:27;;;;;;;1.52;1.30;;;29.20;45.10;;;;;;5035084;28;20033;-71
2022/07/03 13:02:04;;;;;;;1.50;1.38;;;29.30;45.90;;;;;;5035331;28;20026;-71
2022/07/03 13:04:35;;;;;;;1.20;1.10;;;29.30;44.50;;;;;;5035509;28;20036;-71
2022/07/03 13:07:06;;;;;;;2.03;1.08;;;29.30;44.60;;;;;;5035047;28;20030;-72
2022/07/03 13:09:36;;;;;;;1.23;1.05;;;29.30;44.80;;;;;;5035291;28;20079;-71
2022/07/03 13:12:03;;;;;;;2.38;1.42;;;29.30;46.50;;;;;;5034673;28;20018;-71